Hlavní strana
METAR-TAF:

METAR-TAF

Letiště :

Letiště Helsinky-Vantaa

Helsinky, Finsko

zeměpisná šířka: 60-19N, zeměpisná délka: 024-58E, výška: 51 m

Aktuální stav počasí

Zpráva byla vytvořena před 14 minutami, v 22:20 UTC
Jihozápadní vítr 14 kt
Teplota 4°C
Vlhkost vzduchu 93%
Tlak 992 hPa
Viditelnost 10 km a více
Oblačno až skoro zataženo ve výšce 1300 ft
slabý déšť

METAR: EFHK 182220Z 22014KT 9999 -RA BKN013 04/03 Q0992 BECMG BKN016

Čas: 00:34 (22:34 UTC)

Předpověď počasí

Zpráva byla vytvořena před 2 hodinami a 9 minutami, v 20:25 UTC
Předpověď platná od 18 v 21 UTC do 19 v 21 UTC
Jihozápadní vítr 14 kt
Viditelnost 10 km a více
Oblačno až skoro zataženo ve výšce 1700 ft
Pravděpodobnost 30% :
Dočasný
od 18 v 21 UTC do 18 v 23 UTC
Oblačno až skoro zataženo ve výšce 1400 ft
Změna
od 19 v 18 UTC do 19 v 20 UTC
Západní vítr 4 kt

TAF: EFHK 182025Z 1821/1921 22014KT 9999 BKN017 PROB30 TEMPO 1821/1823 BKN014 BECMG 1918/1920 26004KT

Stav a předpovědi počasí z více než 4 000 letišť (zprávy METAR a TAF).

Červené a žluté tečky na mapě představují dostupné meteorologické stanice.

Když kurzor umístíte na tečku, zobrazí se název stanice.

Pak kliknutím zobrazíte stav a předpověď počasí.

Chcete-li změnit mapu, kliknutím na zelené tlačítko se znaménkem +mapu přiblížíte, kliknutím na zelené tlačítko se znaménkem – mapu oddálíte a kliknutím na zelené šipky přejdete na sousední mapy.


METAR-TAF: